Wetterdaten: Woche 20.02.12 - 26.02.12 (KW8)
Datum Zeit Temp. A. Feuchte A. Luftdruck Regen Wind Richtung Taupunkt Windchill Windben
20.02.2012 00:00 3,0 C 78 % 1025,8 hPa 0,0 l/m 6,9 km/h N -0,4 C 2,4 C 18,1 km/h
20.02.2012 01:00 2,9 C 77 % 1026,3 hPa 0,0 l/m 6,9 km/h N -0,8 C 2,4 C 17,3 km/h
20.02.2012 02:00 2,9 C 76 % 1026,5 hPa 0,0 l/m 10,0 km/h W-NW -0,9 C -0,2 C 23,3 km/h
20.02.2012 03:00 2,8 C 76 % 1026,8 hPa 0,0 l/m 8,8 km/h W-NW -1,0 C 0,6 C 20,5 km/h
20.02.2012 04:00 2,7 C 76 % 1027,3 hPa 0,0 l/m 8,7 km/h W-NW -1,2 C 0,6 C 19,3 km/h
20.02.2012 05:00 2,7 C 75 % 1028,1 hPa 0,0 l/m 7,4 km/h N -1,3 C 1,5 C 16,5 km/h
20.02.2012 06:00 2,4 C 76 % 1029,0 hPa 0,0 l/m 6,4 km/h W-NW -1,4 C 2,1 C 15,7 km/h
20.02.2012 07:00 2,3 C 77 % 1029,9 hPa 0,0 l/m 6,2 km/h W-NW -1,3 C 2,2 C 14,5 km/h
20.02.2012 08:00 2,5 C 77 % 1030,8 hPa 0,0 l/m 6,8 km/h W-NW -1,1 C 1,4 C 15,3 km/h
20.02.2012 09:00 3,0 C 75 % 1031,4 hPa 0,0 l/m 10,2 km/h W-NW -1,0 C -0,3 C 20,1 km/h
20.02.2012 10:00 3,8 C 72 % 1031,9 hPa 0,0 l/m 9,1 km/h W-NW -0,9 C 1,4 C 20,9 km/h
20.02.2012 11:00 3,9 C 67 % 1032,2 hPa 0,0 l/m 9,5 km/h NW -1,7 C 1,3 C 19,7 km/h
20.02.2012 12:00 4,1 C 63 % 1032,3 hPa 0,0 l/m 8,9 km/h NW -2,4 C 2,0 C 20,9 km/h
20.02.2012 13:00 4,9 C 58 % 1032,1 hPa 0,0 l/m 8,9 km/h NW -2,7 C 2,9 C 22,5 km/h
20.02.2012 14:00 4,4 C 57 % 1032,3 hPa 0,0 l/m 9,7 km/h N -3,4 C 1,7 C 20,9 km/h
20.02.2012 15:00 4,4 C 56 % 1032,6 hPa 0,0 l/m 8,9 km/h N -3,5 C 2,3 C 20,9 km/h
20.02.2012 16:00 3,6 C 58 % 1032,9 hPa 0,0 l/m 5,5 km/h N -3,8 C 3,3 C 14,9 km/h
20.02.2012 17:00 2,9 C 65 % 1033,3 hPa 0,0 l/m 2,7 km/h N -3,1 C 2,9 C 8,1 km/h
20.02.2012 18:00 1,8 C 74 % 1034,0 hPa 0,0 l/m 2,0 km/h N -2,3 C 1,8 C 6,8 km/h
20.02.2012 19:00 0,8 C 79 % 1034,4 hPa 0,0 l/m 1,0 km/h N -2,5 C 0,8 C 5,6 km/h
20.02.2012 20:00 -0,2 C 81 % 1035,0 hPa 0,0 l/m 1,4 km/h N -3,0 C -0,2 C 5,6 km/h
20.02.2012 21:00 -1,9 C 84 % 1035,5 hPa 0,0 l/m 0,1 km/h N -4,3 C -1,9 C 1,6 km/h
20.02.2012 22:00 -2,7 C 84 % 1035,6 hPa 0,0 l/m 0,0 km/h N -5,0 C -2,7 C 0,0 km/h
20.02.2012 23:00 -3,2 C 84 % 1035,6 hPa 0,0 l/m 0,0 km/h N -5,5 C -3,2 C 0,4 km/h
21.02.2012 00:00 -3,5 C 84 % 1035,6 hPa 0,0 l/m 0,0 km/h N -5,8 C -3,5 C 0,0 km/h
21.02.2012 01:00 -3,4 C 84 % 1035,4 hPa 0,0 l/m 0,0 km/h N -5,7 C -3,4 C 1,6 km/h
21.02.2012 02:00 -3,5 C 85 % 1034,9 hPa 0,0 l/m 0,1 km/h N -5,7 C -3,5 C 2,4 km/h
21.02.2012 03:00 -4,0 C 85 % 1034,4 hPa 0,0 l/m 0,0 km/h N -6,1 C -4,0 C 0,0 km/h
21.02.2012 04:00 -4,8 C 85 % 1034,1 hPa 0,0 l/m 0,0 km/h N -6,9 C -4,8 C 0,0 km/h
21.02.2012 05:00 -5,3 C 85 % 1034,1 hPa 0,0 l/m 0,0 km/h N -7,5 C -5,3 C 0,0 km/h
21.02.2012 06:00 -6,1 C 85 % 1033,9 hPa 0,0 l/m 0,0 km/h N -8,2 C -6,1 C 0,4 km/h
21.02.2012 07:00 -5,7 C 85 % 1033,9 hPa 0,0 l/m 0,4 km/h N -7,8 C -5,7 C 2,8 km/h
21.02.2012 08:00 -2,7 C 83 % 1033,7 hPa 0,3 l/m 0,0 km/h N -5,2 C -2,7 C 0,0 km/h
21.02.2012 09:00 0,0 C 74 % 1033,2 hPa 0,0 l/m 0,3 km/h O-SO -4,1 C 0,0 C 1,6 km/h
21.02.2012 10:00 1,8 C 64 % 1032,8 hPa 0,0 l/m 5,6 km/h NO -4,3 C 1,7 C 13,3 km/h
21.02.2012 11:00 2,7 C 67 % 1032,7 hPa 0,0 l/m 2,5 km/h N -2,9 C 2,7 C 6,4 km/h
21.02.2012 12:00 4,0 C 62 % 1032,1 hPa 0,0 l/m 1,2 km/h O-NO -2,6 C 4,0 C 6,4 km/h
21.02.2012 13:00 4,8 C 61 % 1031,5 hPa 0,0 l/m 2,4 km/h N-NO -2,0 C 4,8 C 8,0 km/h
21.02.2012 14:00 5,3 C 57 % 1031,1 hPa 0,0 l/m 1,5 km/h N-NO -2,5 C 5,3 C 7,2 km/h
21.02.2012 15:00 5,6 C 56 % 1030,9 hPa 0,0 l/m 0,8 km/h W-NW -2,5 C 5,6 C 5,6 km/h
21.02.2012 16:00 5,2 C 53 % 1030,9 hPa 0,0 l/m 4,1 km/h NW -3,7 C 5,2 C 10,1 km/h
21.02.2012 17:00 3,1 C 59 % 1031,3 hPa 0,0 l/m 1,2 km/h W-NW -4,1 C 3,1 C 4,8 km/h
21.02.2012 18:00 0,4 C 69 % 1031,9 hPa 0,0 l/m 0,0 km/h N -4,6 C 0,4 C 0,8 km/h
21.02.2012 19:00 -1,3 C 76 % 1032,0 hPa 0,0 l/m 0,1 km/h N -5,0 C -1,3 C 1,6 km/h
21.02.2012 20:00 -2,5 C 80 % 1031,9 hPa 0,0 l/m 0,0 km/h N -5,4 C -2,5 C 0,4 km/h
21.02.2012 21:00 -2,1 C 79 % 1031,9 hPa 0,0 l/m 0,3 km/h N -5,3 C -2,1 C 3,6 km/h
21.02.2012 22:00 1,9 C 55 % 1031,9 hPa 0,0 l/m 1,1 km/h N -6,3 C 1,9 C 6,8 km/h
21.02.2012 23:00 2,5 C 58 % 1032,0 hPa 0,0 l/m 2,4 km/h W-NW -4,9 C 2,5 C 11,3 km/h
22.02.2012 00:00 2,7 C 57 % 1032,3 hPa 0,0 l/m 3,9 km/h N -4,9 C 2,5 C 11,7 km/h
22.02.2012 01:00 2,8 C 57 % 1032,2 hPa 0,0 l/m 4,1 km/h N -5,0 C 2,8 C 14,1 km/h
22.02.2012 02:00 2,8 C 58 % 1032,1 hPa 0,0 l/m 3,0 km/h N -4,7 C 2,8 C 13,7 km/h
22.02.2012 03:00 3,1 C 59 % 1031,8 hPa 0,0 l/m 3,5 km/h N -4,2 C 3,1 C 11,3 km/h
22.02.2012 04:00 3,5 C 59 % 1031,9 hPa 0,0 l/m 7,3 km/h N -3,8 C 2,6 C 18,9 km/h
22.02.2012 05:00 3,6 C 60 % 1032,0 hPa 0,0 l/m 5,9 km/h N -3,4 C 3,6 C 16,1 km/h
22.02.2012 06:00 3,7 C 62 % 1032,0 hPa 0,0 l/m 4,0 km/h N -2,9 C 3,7 C 10,9 km/h
22.02.2012 07:00 3,7 C 63 % 1032,4 hPa 0,0 l/m 4,0 km/h N -2,6 C 3,7 C 11,6 km/h
22.02.2012 08:00 4,1 C 60 % 1032,8 hPa 0,0 l/m 5,6 km/h N -3,1 C 3,8 C 16,1 km/h
22.02.2012 09:00 4,5 C 59 % 1032,8 hPa 0,0 l/m 8,6 km/h N -2,8 C 2,6 C 19,7 km/h
22.02.2012 10:00 5,8 C 61 % 1032,5 hPa 0,0 l/m 9,2 km/h N -1,2 C 3,7 C 22,5 km/h
22.02.2012 11:00 6,6 C 63 % 1032,4 hPa 0,0 l/m 7,8 km/h N -0,0 C 5,4 C 17,7 km/h
22.02.2012 12:00 7,8 C 61 % 1031,6 hPa 0,0 l/m 7,5 km/h N 0,7 C 6,9 C 17,7 km/h
22.02.2012 13:00 8,8 C 56 % 1030,7 hPa 0,0 l/m 5,7 km/h N 0,5 C 8,8 C 15,3 km/h
22.02.2012 14:00 9,4 C 56 % 1029,9 hPa 0,0 l/m 5,0 km/h NO 1,1 C 9,3 C 13,3 km/h
22.02.2012 15:00 9,1 C 60 % 1029,6 hPa 0,0 l/m 2,5 km/h N 1,7 C 9,1 C 10,1 km/h
22.02.2012 16:00 7,9 C 66 % 1029,3 hPa 0,0 l/m 1,0 km/h SO 1,9 C 7,9 C 7,3 km/h
22.02.2012 17:00 5,9 C 72 % 1029,1 hPa 0,0 l/m 0,3 km/h N 1,3 C 5,9 C 3,2 km/h
22.02.2012 18:00 2,9 C 81 % 1029,3 hPa 0,0 l/m 0,0 km/h N -0,1 C 2,9 C 0,0 km/h
22.02.2012 19:00 0,9 C 84 % 1029,4 hPa 0,0 l/m 0,0 km/h N -1,6 C 0,9 C 0,0 km/h
22.02.2012 20:00 -0,2 C 84 % 1029,1 hPa 0,0 l/m 0,0 km/h N -2,6 C -0,2 C 0,0 km/h
22.02.2012 21:00 -0,6 C 83 % 1028,6 hPa 0,0 l/m 0,0 km/h N -3,1 C -0,6 C 0,0 km/h
22.02.2012 22:00 -1,1 C 83 % 1027,8 hPa 0,0 l/m 0,0 km/h N -3,6 C -1,1 C 0,0 km/h
22.02.2012 23:00 -0,8 C 82 % 1027,0 hPa 0,0 l/m 0,0 km/h N -3,4 C -0,8 C 0,8 km/h
23.02.2012 00:00 -1,9 C 83 % 1026,3 hPa 0,0 l/m 0,0 km/h N -4,5 C -1,9 C 0,0 km/h
23.02.2012 01:00 -2,3 C 82 % 1025,8 hPa 0,0 l/m 0,2 km/h N -4,9 C -2,3 C 2,8 km/h
23.02.2012 02:00 -2,4 C 82 % 1025,1 hPa 0,0 l/m 0,0 km/h N -5,1 C -2,4 C 0,4 km/h
23.02.2012 03:00 -3,3 C 82 % 1024,3 hPa 0,0 l/m 0,0 km/h N -5,9 C -3,3 C 0,0 km/h
23.02.2012 04:00 -3,8 C 82 % 1023,8 hPa 0,0 l/m 0,0 km/h N -6,4 C -3,8 C 0,0 km/h
23.02.2012 05:00 -3,7 C 82 % 1024,0 hPa 0,0 l/m 0,0 km/h N -6,4 C -3,7 C 0,0 km/h
23.02.2012 06:00 -3,8 C 82 % 1023,7 hPa 0,0 l/m 0,0 km/h N -6,4 C -3,8 C 0,0 km/h
23.02.2012 07:00 -3,3 C 82 % 1023,7 hPa 0,0 l/m 0,0 km/h N -6,0 C -3,3 C 0,0 km/h
23.02.2012 08:00 -1,2 C 81 % 1023,2 hPa 0,0 l/m 0,2 km/h N -4,1 C -1,2 C 2,4 km/h
23.02.2012 09:00 0,4 C 84 % 1022,6 hPa 0,0 l/m 0,1 km/h N -2,0 C 0,4 C 1,6 km/h
23.02.2012 10:00 2,6 C 84 % 1021,8 hPa 0,0 l/m 0,5 km/h N 0,1 C 2,6 C 4,0 km/h
23.02.2012 11:00 4,1 C 80 % 1021,6 hPa 0,0 l/m 1,5 km/h N 1,0 C 4,1 C 6,8 km/h
23.02.2012 12:00 6,5 C 65 % 1020,7 hPa 0,0 l/m 3,7 km/h N -0,0 C 6,2 C 14,9 km/h
23.02.2012 13:00 11,2 C 34 % 1019,5 hPa 0,0 l/m 11,8 km/h N -4,1 C 8,0 C 34,2 km/h
23.02.2012 14:00 10,4 C 37 % 1018,8 hPa 0,3 l/m 22,8 km/h N -3,6 C 3,2 C 55,9 km/h
23.02.2012 15:00 8,4 C 59 % 1019,7 hPa 0,0 l/m 26,1 km/h N 0,6 C -0,6 C 55,5 km/h
23.02.2012 16:00 6,2 C 80 % 1020,6 hPa 0,3 l/m 17,2 km/h N 2,9 C -0,4 C 42,3 km/h
23.02.2012 17:00 6,4 C 78 % 1021,2 hPa 0,0 l/m 16,3 km/h N 2,8 C 0,2 C 39,0 km/h
23.02.2012 18:00 6,8 C 75 % 1021,5 hPa 0,0 l/m 14,9 km/h N 2,6 C 1,4 C 34,2 km/h
23.02.2012 19:00 7,2 C 73 % 1021,7 hPa 0,0 l/m 17,2 km/h N 2,6 C 0,8 C 37,8 km/h
23.02.2012 20:00 7,2 C 72 % 1022,1 hPa 0,0 l/m 15,5 km/h N 2,5 C 1,5 C 33,8 km/h
23.02.2012 21:00 7,2 C 72 % 1022,6 hPa 0,0 l/m 11,8 km/h N 2,5 C 3,4 C 26,6 km/h
23.02.2012 22:00 7,1 C 73 % 1022,6 hPa 0,0 l/m 10,6 km/h N 2,7 C 4,1 C 28,6 km/h
23.02.2012 23:00 7,1 C 74 % 1022,5 hPa 0,0 l/m 11,5 km/h N 2,8 C 3,4 C 32,2 km/h
24.02.2012 00:00 7,2 C 75 % 1022,5 hPa 0,0 l/m 14,6 km/h N 3,0 C 1,9 C 37,4 km/h
24.02.2012 01:00 7,1 C 78 % 1022,0 hPa 0,0 l/m 12,9 km/h N 3,5 C 2,7 C 30,2 km/h
24.02.2012 02:00 7,7 C 76 % 1021,7 hPa 0,0 l/m 16,6 km/h N 3,8 C 1,7 C 35,0 km/h
24.02.2012 03:00 8,1 C 76 % 1021,2 hPa 0,3 l/m 17,1 km/h N 4,1 C 2,0 C 42,3 km/h
24.02.2012 04:00 8,5 C 75 % 1021,2 hPa 0,0 l/m 22,9 km/h N 4,3 C 0,4 C 48,7 km/h
24.02.2012 05:00 8,0 C 78 % 1021,3 hPa 0,0 l/m 20,2 km/h N 4,5 C 0,7 C 43,1 km/h
24.02.2012 06:00 8,4 C 78 % 1021,5 hPa 0,0 l/m 17,8 km/h N 4,7 C 2,0 C 45,1 km/h
24.02.2012 07:00 8,6 C 78 % 1021,1 hPa 0,0 l/m 17,3 km/h N 4,9 C 2,5 C 39,8 km/h
24.02.2012 08:00 9,4 C 75 % 1021,5 hPa 0,0 l/m 21,6 km/h N 5,1 C 2,0 C 44,3 km/h
24.02.2012 09:00 10,2 C 72 % 1021,3 hPa 0,0 l/m 22,6 km/h N 5,3 C 2,8 C 44,3 km/h
24.02.2012 10:00 10,8 C 71 % 1021,2 hPa 0,0 l/m 25,2 km/h N 5,6 C 2,8 C 50,7 km/h
24.02.2012 11:00 11,4 C 69 % 1021,0 hPa 0,0 l/m 23,8 km/h N 5,9 C 4,1 C 50,7 km/h
24.02.2012 12:00 11,4 C 68 % 1020,5 hPa 0,0 l/m 21,3 km/h N 5,7 C 4,8 C 47,1 km/h
24.02.2012 13:00 12,3 C 66 % 1019,6 hPa 0,0 l/m 21,4 km/h N 6,1 C 5,9 C 45,5 km/h
24.02.2012 14:00 12,2 C 65 % 1019,1 hPa 0,0 l/m 24,0 km/h N 5,8 C 5,0 C 49,5 km/h
24.02.2012 15:00 11,3 C 69 % 1019,2 hPa 0,0 l/m 24,2 km/h N 5,8 C 3,9 C 52,3 km/h
24.02.2012 16:00 11,0 C 69 % 1019,2 hPa 0,0 l/m 23,6 km/h N 5,5 C 3,5 C 50,3 km/h
24.02.2012 17:00 10,9 C 71 % 1019,1 hPa 0,0 l/m 20,9 km/h N 5,9 C 4,1 C 46,7 km/h
24.02.2012 18:00 10,7 C 72 % 1019,8 hPa 0,0 l/m 20,3 km/h N 5,8 C 4,1 C 41,8 km/h
24.02.2012 19:00 10,3 C 72 % 1019,8 hPa 0,0 l/m 21,4 km/h N 5,5 C 3,2 C 43,9 km/h
24.02.2012 20:00 9,9 C 73 % 1019,6 hPa 0,0 l/m 22,0 km/h N 5,4 C 2,6 C 43,9 km/h
24.02.2012 21:00 9,8 C 75 % 1019,9 hPa 0,0 l/m 15,0 km/h N 5,5 C 5,0 C 32,2 km/h
24.02.2012 22:00 10,3 C 74 % 1019,1 hPa 0,0 l/m 11,3 km/h N 5,8 C 7,2 C 31,4 km/h
24.02.2012 23:00 10,3 C 73 % 1018,5 hPa 0,0 l/m 7,8 km/h N 5,7 C 9,3 C 21,7 km/h
25.02.2012 00:00 10,7 C 73 % 1018,2 hPa 0,0 l/m 11,7 km/h N 6,0 C 7,5 C 27,4 km/h
25.02.2012 01:00 10,4 C 74 % 1018,2 hPa 0,0 l/m 14,8 km/h N 5,9 C 5,7 C 36,2 km/h
25.02.2012 02:00 10,7 C 71 % 1017,9 hPa 0,0 l/m 17,4 km/h N 5,6 C 5,1 C 38,6 km/h
25.02.2012 03:00 10,6 C 70 % 1017,8 hPa 0,0 l/m 17,2 km/h N 5,3 C 5,0 C 37,0 km/h
25.02.2012 04:00 9,9 C 72 % 1017,5 hPa 0,0 l/m 15,0 km/h N 5,1 C 5,1 C 33,8 km/h
25.02.2012 05:00 9,6 C 73 % 1017,3 hPa 0,0 l/m 20,6 km/h N 5,1 C 2,7 C 43,5 km/h
25.02.2012 06:00 9,4 C 74 % 1017,5 hPa 0,0 l/m 17,6 km/h N 5,0 C 3,4 C 36,6 km/h
25.02.2012 07:00 9,3 C 74 % 1018,1 hPa 0,0 l/m 17,8 km/h N 4,8 C 3,2 C 39,4 km/h
25.02.2012 08:00 9,8 C 69 % 1019,2 hPa 0,0 l/m 12,0 km/h N 4,5 C 6,3 C 27,4 km/h
25.02.2012 09:00 10,5 C 64 % 1019,4 hPa 0,0 l/m 12,9 km/h N 4,0 C 6,7 C 28,2 km/h
25.02.2012 10:00 10,9 C 61 % 1019,4 hPa 0,0 l/m 13,5 km/h N 3,8 C 6,9 C 32,2 km/h
25.02.2012 11:00 11,1 C 60 % 1019,2 hPa 0,0 l/m 11,8 km/h N 3,5 C 7,9 C 27,8 km/h
25.02.2012 12:00 11,8 C 56 % 1018,3 hPa 0,0 l/m 14,9 km/h N 3,3 C 7,4 C 31,4 km/h
25.02.2012 13:00 12,6 C 53 % 1017,4 hPa 0,0 l/m 14,3 km/h N 3,1 C 8,6 C 33,0 km/h
25.02.2012 14:00 12,9 C 51 % 1016,4 hPa 0,0 l/m 13,9 km/h N 3,0 C 9,1 C 37,8 km/h
25.02.2012 15:00 12,2 C 51 % 1015,5 hPa 0,0 l/m 17,6 km/h N 2,4 C 6,9 C 38,2 km/h
25.02.2012 16:00 11,4 C 56 % 1015,3 hPa 0,0 l/m 16,8 km/h N 2,8 C 6,2 C 37,8 km/h
25.02.2012 17:00 10,4 C 61 % 1015,4 hPa 0,0 l/m 13,4 km/h N 3,3 C 6,4 C 34,6 km/h
25.02.2012 18:00 9,8 C 66 % 1015,4 hPa 0,0 l/m 10,8 km/h N 3,7 C 7,0 C 30,6 km/h
25.02.2012 19:00 9,6 C 67 % 1015,1 hPa 0,0 l/m 11,4 km/h N 3,7 C 6,4 C 30,2 km/h
25.02.2012 20:00 9,1 C 70 % 1015,5 hPa 0,0 l/m 7,7 km/h N 3,8 C 8,1 C 22,9 km/h
25.02.2012 21:00 8,9 C 72 % 1015,6 hPa 0,0 l/m 10,3 km/h N 4,1 C 6,3 C 25,8 km/h
25.02.2012 22:00 9,1 C 69 % 1015,4 hPa 0,0 l/m 12,6 km/h N 3,7 C 5,1 C 29,0 km/h
25.02.2012 23:00 8,8 C 70 % 1015,1 hPa 0,0 l/m 8,9 km/h N 3,5 C 7,0 C 21,3 km/h
26.02.2012 00:00 7,8 C 76 % 1014,8 hPa 0,0 l/m 7,8 km/h N 3,8 C 6,6 C 20,5 km/h
26.02.2012 01:00 7,4 C 70 % 1014,3 hPa 0,0 l/m 9,8 km/h N 2,3 C 5,0 C 23,3 km/h
26.02.2012 02:00 7,5 C 61 % 1014,0 hPa 0,0 l/m 14,7 km/h N 0,5 C 2,3 C 32,6 km/h
26.02.2012 03:00 6,8 C 62 % 1014,1 hPa 0,0 l/m 12,5 km/h N 0,1 C 2,6 C 29,8 km/h
26.02.2012 04:00 6,4 C 62 % 1014,4 hPa 0,0 l/m 11,4 km/h N -0,3 C 2,8 C 27,0 km/h
26.02.2012 05:00 6,0 C 63 % 1015,1 hPa 0,0 l/m 8,1 km/h N -0,6 C 4,4 C 20,9 km/h
26.02.2012 06:00 5,8 C 63 % 1015,0 hPa 0,0 l/m 7,4 km/h N -0,7 C 4,5 C 17,3 km/h
26.02.2012 07:00 5,8 C 62 % 1015,0 hPa 0,0 l/m 11,4 km/h N -0,8 C 2,1 C 25,7 km/h
26.02.2012 08:00 6,5 C 60 % 1015,0 hPa 0,0 l/m 16,0 km/h N -0,7 C 0,5 C 31,8 km/h
26.02.2012 09:00 7,1 C 60 % 1015,1 hPa 0,0 l/m 19,1 km/h N -0,2 C -0,1 C 40,6 km/h
26.02.2012 10:00 7,6 C 57 % 1015,2 hPa 0,0 l/m 20,9 km/h N -0,5 C -0,2 C 39,8 km/h
26.02.2012 11:00 6,6 C 64 % 1015,7 hPa 0,3 l/m 17,9 km/h N 0,4 C -0,2 C 33,8 km/h
26.02.2012 12:00 5,8 C 74 % 1015,9 hPa 0,3 l/m 11,0 km/h N 1,5 C 2,4 C 26,2 km/h
26.02.2012 13:00 4,5 C 75 % 1016,2 hPa 1,8 l/m 13,5 km/h NW 0,3 C -0,6 C 28,2 km/h
26.02.2012 14:00 2,6 C 83 % 1016,6 hPa 1,0 l/m 8,1 km/h NW 0,0 C 1,2 C 19,7 km/h
26.02.2012 15:00 2,9 C 83 % 1016,5 hPa 0,5 l/m 12,9 km/h W-NW 0,3 C -2,2 C 27,0 km/h
26.02.2012 16:00 3,4 C 79 % 1016,7 hPa 0,0 l/m 13,8 km/h W 0,0 C -2,1 C 28,5 km/h
26.02.2012 17:00 3,4 C 77 % 1017,5 hPa 0,0 l/m 12,0 km/h W-NW -0,3 C -1,0 C 24,5 km/h
26.02.2012 18:00 3,4 C 77 % 1018,3 hPa 0,3 l/m 12,4 km/h W-NW -0,3 C -1,3 C 27,8 km/h
26.02.2012 19:00 2,8 C 76 % 1019,2 hPa 0,0 l/m 13,4 km/h NW -1,1 C -2,6 C 29,0 km/h
26.02.2012 20:00 2,6 C 74 % 1020,2 hPa 0,0 l/m 12,9 km/h N -1,5 C -2,6 C 26,2 km/h
26.02.2012 21:00 2,2 C 74 % 1021,0 hPa 0,0 l/m 11,7 km/h N -2,1 C -2,2 C 23,7 km/h
26.02.2012 22:00 1,8 C 72 % 1021,8 hPa 0,0 l/m 9,9 km/h N -2,7 C -1,4 C 22,9 km/h
26.02.2012 23:00 1,4 C 70 % 1022,2 hPa 0,0 l/m 8,7 km/h N -3,5 C -0,8 C 21,3 km/h
Min-Datum _ 21.02.12 23.02.12 26.02.12 - 20.02.12 - 21.02.12 21.02.12 20.02.12
_ Min-Zeit 06:45 13:30 02:30 - 20:45 - 06:45 06:45 21:15
Minimum _ -6,3 C 32 % 1013,9 hPa - 0,0 km/h - -8,4 C -6,3 C 0,0 km/h
Max-Datum _ 25.02.12 21.02.12 20.02.12 26.02.12 23.02.12 - 25.02.12 25.02.12 23.02.12
_ Max-Zeit 13:30 02:30 22:45 13:45 15:15 - 01:15 14:00 15:15
Maximum _ 13,2 C 85 % 1035,7 hPa 1,8 l/m 32,1 km/h
N
- 6,4 C 11,2 C 62,8 km/h
N
Durchschnitt _ 4,9 C 70 % 1024,5 hPa #5,2 l/m 9,2 km/h N -0,2 C 2,2 C 21,4 km/h